Time;durP1;ratioP1;P1;durP2;ratioP2;P2;SDS_P1;SDS_P2;PMS_P1;PMS_P2;Temp;Humidity;BMP_temperature;BMP_pressure;BME280_temperature;BME280_humidity;BME280_pressure;Samples;Min_cycle;Max_cycle;Signal;HPM_P1;HPM_P2
2022/01/23 05:01:52;397867.00;1.33;686.14;0.00;0.00;0.62;;;;;10.60;1.00;;;;;;2272486;61;795;-83
2022/01/23 05:04:22;569894.00;1.90;982.26;0.00;0.00;0.62;;;;;10.10;1.00;;;;;;2273116;61;1311;-83
2022/01/23 05:06:59;1108879.00;3.70;1926.31;0.00;0.00;0.62;;;;;10.00;1.00;;;;;;2269060;61;1179;-83
2022/01/23 05:09:27;794267.00;2.65;1371.13;0.00;0.00;0.62;;;;;9.70;1.00;;;;;;2265896;61;1269;-83
2022/01/23 05:11:58;736612.00;2.46;1270.79;0.00;0.00;0.62;;;;;9.80;1.00;;;;;;2272457;61;1089;-84
2022/01/23 05:14:32;635838.00;2.12;1096.14;0.00;0.00;0.62;;;;;9.90;1.00;;;;;;2273152;61;1167;-83
2022/01/23 05:16:59;646969.00;2.16;1115.39;0.00;0.00;0.62;;;;;10.40;1.00;;;;;;2269386;61;1045;-83
2022/01/23 05:19:27;681516.00;2.27;1175.20;0.00;0.00;0.62;;;;;10.60;1.00;;;;;;2273250;61;1497;-84
2022/01/23 05:24:47;1232340.00;4.11;2148.80;29317.00;0.10;51.40;;;;;10.80;1.00;;;;;;2273741;61;693;-84
2022/01/23 05:27:23;692728.00;2.31;1194.63;0.00;0.00;0.62;;;;;10.80;1.00;;;;;;2268608;61;1174;-86
2022/01/23 05:29:58;735743.00;2.45;1269.28;0.00;0.00;0.62;;;;;10.90;1.00;;;;;;2264587;61;1376;-85
2022/01/23 05:32:28;126307280.00;421.02;81639848.00;0.00;0.00;0.62;;;;;10.50;1.00;;;;;;2263858;61;1172;-85
2022/01/23 05:34:57;727526.00;2.43;1255.01;0.00;0.00;0.62;;;;;10.40;1.00;;;;;;2264320;61;1140;-85
2022/01/23 05:37:28;883156.00;2.94;1526.56;24478.00;0.08;43.02;;;;;10.40;1.00;;;;;;2257141;61;1304;-84
2022/01/23 05:39:55;892317.00;2.97;1542.63;0.00;0.00;0.62;;;;;10.20;1.00;;;;;;2255383;61;1300;-85
2022/01/23 05:42:22;601135.00;2.00;1036.18;0.00;0.00;0.62;;;;;10.00;1.00;;;;;;2255751;61;1915;-85
2022/01/23 05:44:49;741016.00;2.47;1278.44;0.00;0.00;0.62;;;;;9.80;1.00;;;;;;2256254;61;1128;-85
2022/01/23 05:47:17;1096710.00;3.66;1904.54;12374.00;0.04;22.06;;;;;10.10;1.00;;;;;;2257832;61;1200;-82
2022/01/23 05:49:44;842269.00;2.81;1454.94;0.00;0.00;0.62;;;;;9.80;1.00;;;;;;2263598;61;1259;-85
2022/01/23 05:52:15;763393.00;2.54;1317.35;13096.00;0.04;23.31;;;;;9.90;1.00;;;;;;2264216;61;1155;-85
2022/01/23 05:54:43;614973.00;2.05;1060.08;0.00;0.00;0.62;;;;;10.00;1.00;;;;;;2265008;61;1107;-85
2022/01/23 05:57:12;762540.00;2.54;1315.87;79981.00;0.27;139.00;;;;;9.90;1.00;;;;;;2269195;61;1219;-86
2022/01/23 05:59:39;1056318.00;3.52;1832.48;81073.00;0.27;140.89;;;;;10.10;1.00;;;;;;2274746;61;1409;-85
2022/01/23 06:02:06;916910.00;3.06;1585.84;11211.00;0.04;20.05;;;;;10.40;1.00;;;;;;2275610;61;1923;-86
2022/01/23 06:04:33;791204.00;2.64;1365.79;0.00;0.00;0.62;;;;;10.50;1.00;;;;;;2274498;61;1188;-85
2022/01/23 06:07:01;900657.00;3.00;1557.27;0.00;0.00;0.62;;;;;10.20;1.00;;;;;;2266501;61;1254;-85
2022/01/23 06:09:28;846307.00;2.82;1462.01;17702.00;0.06;31.29;;;;;10.40;1.00;;;;;;2274908;61;1462;-86
2022/01/23 06:11:57;693037.00;2.31;1195.17;0.00;0.00;0.62;;;;;9.80;1.00;;;;;;2273203;61;971;-86
2022/01/23 06:14:25;813072.00;2.71;1403.93;0.00;0.00;0.62;;;;;9.20;1.00;;;;;;2266479;61;1256;-85
2022/01/23 06:16:52;600012.00;2.00;1034.24;0.00;0.00;0.62;;;;;9.20;1.00;;;;;;2269248;61;1136;-84
2022/01/23 06:19:19;914376.00;3.05;1581.38;0.00;0.00;0.62;;;;;9.10;1.00;;;;;;2273741;61;1279;-83
2022/01/23 06:21:52;748985.00;2.50;1292.29;0.00;0.00;0.62;;;;;9.20;1.00;;;;;;2273069;61;965;-85
2022/01/23 06:24:25;853282.00;2.84;1474.21;88656.00;0.30;153.99;;;;;9.50;1.00;;;;;;2266056;61;1932;-85
2022/01/23 06:27:00;651883.00;2.17;1123.89;0.00;0.00;0.62;;;;;9.90;1.00;;;;;;2273281;61;1171;-84
2022/01/23 06:29:30;863806.00;2.88;1492.64;44259.00;0.15;77.26;;;;;10.00;1.00;;;;;;2268387;61;1234;-85
2022/01/23 06:31:58;818474.00;2.73;1413.36;53164.00;0.18;92.66;;;;;10.40;1.00;;;;;;2261617;61;1256;-85
2022/01/23 06:34:26;889650.00;2.97;1537.95;82558.00;0.28;143.46;;;;;10.70;1.00;;;;;;2261542;61;1200;-85
2022/01/23 06:36:54;1195269.00;3.98;2081.67;120590.00;0.40;209.10;;;;;11.00;1.00;;;;;;2267764;61;1081;-85
2022/01/23 06:39:23;948250.00;3.16;1641.03;59889.00;0.20;104.28;;;;;11.20;1.00;;;;;;2258314;61;1254;-85
2022/01/23 06:41:50;1159581.00;3.87;2017.31;51793.00;0.17;90.29;;;;;11.30;1.00;;;;;;2260461;61;1203;-85
2022/01/23 06:44:28;989502.00;3.30;1713.89;49964.00;0.17;87.12;;;;;11.00;1.00;;;;;;2247860;61;2021;-84
2022/01/23 06:46:57;1159641.00;3.87;2017.42;67521.00;0.23;117.48;;;;;11.10;1.00;;;;;;2249219;61;1316;-85
2022/01/23 06:49:24;1259596.00;4.20;2198.35;127812.00;0.43;221.56;;;;;11.20;1.00;;;;;;2245532;61;1255;-85
2022/01/23 06:51:53;1238497.00;4.13;2159.98;92814.00;0.31;161.17;;;;;10.70;1.00;;;;;;2255600;61;1711;-85
2022/01/23 06:54:46;;;;;;;;;;;;;;;;;;;;;
2022/01/23 06:57:16;1058113.00;3.53;1835.67;86605.00;0.29;150.45;;;;;9.10;1.00;;;;;;2232326;62;1257;-86
2022/01/23 06:59:47;762934.00;2.54;1316.55;36846.00;0.12;64.43;;;;;9.10;1.00;;;;;;2231198;62;1376;-83
2022/01/23 07:02:17;1091367.00;3.64;1894.99;152204.00;0.51;263.61;;;;;9.10;1.00;;;;;;2241016;61;1209;-83
2022/01/23 07:04:46;877653.00;2.93;1516.90;37807.00;0.13;66.09;;;;;9.50;1.00;;;;;;2244957;61;1997;-83
2022/01/23 07:07:19;810593.00;2.70;1399.60;104030.00;0.35;180.53;;;;;10.10;1.00;;;;;;2244090;62;1205;-84
2022/01/23 07:09:50;1058010.00;3.53;1835.49;88968.00;0.30;154.53;;;;;10.30;1.00;;;;;;2244129;62;1287;-85
2022/01/23 07:12:18;683141.00;2.28;1178.02;0.00;0.00;0.62;;;;;10.60;1.00;;;;;;2244135;62;1126;-85
2022/01/23 07:15:01;;;;;;;;;;;;;;;;;;;;;
2022/01/23 07:17:40;1097539.00;3.66;1906.02;114987.00;0.38;199.43;;;;;10.90;1.00;;;;;;2250729;61;1197;-85
2022/01/23 07:20:18;822302.00;2.74;1420.05;0.00;0.00;0.62;;;;;10.80;1.00;;;;;;2256132;61;1377;-85
2022/01/23 07:22:46;128505264.00;428.35;85980824.00;0.00;0.00;0.62;;;;;11.30;1.00;;;;;;2255479;61;1926;-85
2022/01/23 07:25:16;812795.00;2.71;1403.45;0.00;0.00;0.62;;;;;11.40;1.00;;;;;;2260010;61;1220;-85
2022/01/23 07:27:56;940624.00;3.14;1627.58;0.00;0.00;0.62;;;;;11.40;1.00;;;;;;2254991;61;1202;-85
2022/01/23 07:30:37;677837.00;2.26;1168.83;0.00;0.00;0.62;;;;;11.50;1.00;;;;;;2264706;61;1401;-85
2022/01/23 07:33:06;603866.00;2.01;1040.90;0.00;0.00;0.62;;;;;11.50;1.00;;;;;;2268120;61;1203;-86
2022/01/23 07:35:37;703492.00;2.34;1213.29;0.00;0.00;0.62;;;;;11.60;1.00;;;;;;2265479;61;1064;-85
2022/01/23 07:38:06;753063.00;2.51;1299.38;0.00;0.00;0.62;;;;;11.30;1.00;;;;;;2268323;61;1180;-86
2022/01/23 07:40:33;770636.00;2.57;1329.96;0.00;0.00;0.62;;;;;11.20;1.00;;;;;;2273722;61;1432;-86
2022/01/23 07:43:04;806283.00;2.69;1392.08;11527.00;0.04;20.59;;;;;11.10;1.00;;;;;;2273366;61;1986;-85
2022/01/23 07:46:22;;;;;;;;;;;;;;;;;;;;;
2022/01/23 07:48:59;1028591.00;3.43;1783.18;0.00;0.00;0.62;;;;;11.20;1.00;;;;;;2260084;61;1306;-86
2022/01/23 07:51:26;924308.00;3.08;1598.85;0.00;0.00;0.62;;;;;11.00;1.00;;;;;;2264579;61;1184;-84
2022/01/23 07:53:56;958114.00;3.19;1658.42;62679.00;0.21;109.11;;;;;11.30;1.00;;;;;;2262990;61;1184;-86
2022/01/23 07:56:26;812848.00;2.71;1403.54;0.00;0.00;0.62;;;;;10.90;1.00;;;;;;2262862;61;1211;-84
2022/01/23 07:59:27;740273.00;2.47;1277.15;0.00;0.00;0.62;;;;;10.30;1.00;;;;;;2263160;61;1433;-85
2022/01/23 08:05:17;501893.00;1.67;865.08;0.00;0.00;0.62;;;;;11.30;1.00;;;;;;2248500;61;989;-85
2022/01/23 08:07:46;632061.00;2.11;1089.61;0.00;0.00;0.62;;;;;11.50;1.00;;;;;;2248930;61;1285;-85
2022/01/23 08:10:15;832723.00;2.78;1438.25;77367.00;0.26;134.49;;;;;11.70;1.00;;;;;;2240848;62;1355;-85
2022/01/23 08:12:55;653203.00;2.18;1126.18;0.00;0.00;0.62;;;;;11.50;1.00;;;;;;2237405;62;1174;-85
2022/01/23 08:15:41;621287.00;2.07;1070.99;68066.00;0.23;118.42;;;;;11.20;1.00;;;;;;2242640;61;1161;-85
2022/01/23 08:18:11;1131382.00;3.77;1966.64;58410.00;0.19;101.73;;;;;11.40;1.00;;;;;;2240496;62;1078;-86
2022/01/23 08:20:40;1339436.00;4.46;2344.46;72713.00;0.24;126.45;;;;;11.60;1.00;;;;;;2240584;62;1227;-85
2022/01/23 08:23:13;809555.00;2.70;1397.79;69067.00;0.23;120.15;;;;;11.80;1.00;;;;;;2240669;62;1916;-85
2022/01/23 08:25:58;961207.00;3.20;1663.88;0.00;0.00;0.62;;;;;11.90;1.00;;;;;;2238457;61;1166;-85
2022/01/23 08:28:35;772687.00;2.58;1333.53;0.00;0.00;0.62;;;;;12.00;1.00;;;;;;2249501;61;1307;-85
2022/01/23 08:31:03;766895.00;2.56;1323.45;20826.00;0.07;36.70;;;;;11.70;1.00;;;;;;2252874;61;1072;-85
2022/01/23 08:34:11;868992.00;2.90;1501.72;74215.00;0.25;129.04;;;;;11.40;1.00;;;;;;2246319;61;1055;-85
2022/01/23 08:36:45;783413.00;2.61;1352.21;0.00;0.00;0.62;;;;;11.60;1.00;;;;;;2253068;61;1088;-85
2022/01/23 08:39:14;810049.00;2.70;1398.65;0.00;0.00;0.62;;;;;11.90;1.00;;;;;;2252826;61;1428;-85
2022/01/23 08:42:15;764342.00;2.55;1319.01;0.00;0.00;0.62;;;;;12.00;1.00;;;;;;2263556;61;1094;-85
2022/01/23 08:44:56;595568.00;1.99;1026.57;0.00;0.00;0.62;;;;;11.90;1.00;;;;;;2261385;61;1931;-85
2022/01/23 08:48:04;779710.00;2.60;1345.76;58934.00;0.20;102.63;;;;;11.70;1.00;;;;;;2261151;61;1052;-85
2022/01/23 08:50:37;1744221.00;5.81;3111.67;49179.00;0.16;85.77;;;;;10.90;1.00;;;;;;2245454;62;1426;-84
2022/01/23 08:53:15;904798.00;3.02;1564.55;0.00;0.00;0.62;;;;;10.80;1.00;;;;;;2237417;62;1047;-85
2022/01/23 08:55:47;898956.00;3.00;1554.29;0.00;0.00;0.62;;;;;11.00;1.00;;;;;;2237325;62;1170;-85
2022/01/23 08:58:16;899532.00;3.00;1555.30;27818.00;0.09;48.81;;;;;11.10;1.00;;;;;;2237333;62;1275;-85
2022/01/23 09:01:12;800706.00;2.67;1382.35;0.00;0.00;0.62;;;;;11.60;1.00;;;;;;2232748;62;1082;-85
2022/01/23 09:06:59;954116.00;3.18;1651.37;0.00;0.00;0.62;;;;;11.70;1.00;;;;;;2208956;62;1151;-85
2022/01/23 09:09:31;644169.00;2.15;1110.55;31323.00;0.10;54.87;;;;;11.90;1.00;;;;;;2216974;62;1277;-84
2022/01/23 09:12:05;772671.00;2.58;1333.50;0.00;0.00;0.62;;;;;11.90;1.00;;;;;;2217431;62;1170;-84
2022/01/23 09:17:32;1024985.00;3.42;1776.77;76578.00;0.26;133.13;;;;;10.90;1.00;;;;;;2223138;62;1155;-85
2022/01/23 09:40:44;641883.00;2.14;1106.60;0.00;0.00;0.62;;;;;10.60;1.00;;;;;;2217161;62;1151;-85
2022/01/23 09:43:18;877951.00;2.93;1517.43;55055.00;0.18;95.93;;;;;10.70;1.00;;;;;;2217768;62;2033;-85
2022/01/23 09:45:51;559251.00;1.86;963.91;37784.00;0.13;66.05;;;;;10.70;1.00;;;;;;2210855;62;1202;-85
2022/01/23 09:48:37;877837.00;2.93;1517.23;0.00;0.00;0.62;;;;;10.90;1.00;;;;;;2210501;62;1297;-85
2022/01/23 09:51:17;864801.00;2.88;1494.38;0.00;0.00;0.62;;;;;10.10;1.00;;;;;;2210255;62;1175;-85
2022/01/23 09:53:50;922711.00;3.08;1596.04;21902.00;0.07;38.56;;;;;10.50;1.00;;;;;;2205256;63;1139;-85
2022/01/23 09:56:34;676650.00;2.26;1166.77;0.00;0.00;0.62;;;;;10.10;1.00;;;;;;2212631;62;1179;-88
2022/01/23 09:59:09;905157.00;3.02;1565.18;22977.00;0.08;40.43;;;;;10.10;1.00;;;;;;2211628;63;1300;-85
2022/01/23 10:01:42;642929.00;2.14;1108.40;13283.00;0.04;23.64;;;;;10.20;1.00;;;;;;2209066;63;1195;-85
2022/01/23 10:04:19;558568.00;1.86;962.73;30729.00;0.10;53.84;;;;;10.50;1.00;;;;;;2215495;62;2002;-85
2022/01/23 10:07:14;;;;;;;;;;;;;;;;;;;;;
2022/01/23 10:10:07;988516.00;3.30;1712.14;76742.00;0.26;133.41;;;;;10.40;1.00;;;;;;2221060;62;1399;-85
2022/01/23 10:12:56;806791.00;2.69;1392.97;0.00;0.00;0.62;;;;;10.90;1.00;;;;;;2232635;62;1249;-85
2022/01/23 10:15:35;1016931.00;3.39;1762.48;40247.00;0.13;70.32;;;;;10.80;1.00;;;;;;2243675;61;1588;-85
2022/01/23 10:18:29;747924.00;2.49;1290.45;0.00;0.00;0.62;;;;;11.00;1.00;;;;;;2261832;61;1922;-85
2022/01/23 10:20:56;974661.00;3.25;1687.64;31341.00;0.10;54.90;;;;;10.90;1.00;;;;;;2260324;61;1486;-85
2022/01/23 10:23:24;813519.00;2.71;1404.71;52211.00;0.17;91.01;;;;;10.80;1.00;;;;;;2260509;61;2026;-85
2022/01/23 10:25:56;809465.00;2.70;1397.64;0.00;0.00;0.62;;;;;10.80;1.00;;;;;;2260460;61;1181;-85
2022/01/23 10:28:32;630445.00;2.10;1086.82;0.00;0.00;0.62;;;;;10.40;1.00;;;;;;2260381;61;1517;-85
2022/01/23 10:31:11;534206.00;1.78;920.74;0.00;0.00;0.62;;;;;10.30;1.00;;;;;;2253917;61;1121;-85
2022/01/23 10:33:44;925810.00;3.09;1601.50;67839.00;0.23;118.03;;;;;10.30;1.00;;;;;;2260521;61;1066;-85
2022/01/23 10:36:19;843136.00;2.81;1456.46;38563.00;0.13;67.40;;;;;10.60;1.00;;;;;;2260487;61;1176;-85
2022/01/23 10:38:53;677989.00;2.26;1169.09;0.00;0.00;0.62;;;;;10.90;1.00;;;;;;2263192;61;1413;-85
2022/01/23 10:41:44;566062.00;1.89;975.65;0.00;0.00;0.62;;;;;11.00;1.00;;;;;;2275603;61;1116;-85
2022/01/23 10:47:33;750322.00;2.50;1294.62;0.00;0.00;0.62;;;;;11.10;1.00;;;;;;2269129;61;1057;-86
2022/01/23 10:50:06;713655.00;2.38;1230.93;0.00;0.00;0.62;;;;;10.80;1.00;;;;;;2261453;61;1396;-85
2022/01/23 10:52:36;710237.00;2.37;1225.00;33286.00;0.11;58.27;;;;;10.80;1.00;;;;;;2259515;61;1149;-84
2022/01/23 10:55:05;760894.00;2.54;1313.01;0.00;0.00;0.62;;;;;10.60;1.00;;;;;;2247936;61;1086;-85
2022/01/23 10:57:42;504606.00;1.68;869.75;0.00;0.00;0.62;;;;;10.50;1.00;;;;;;2238455;61;1245;-85
2022/01/23 11:00:24;534145.00;1.78;920.63;0.00;0.00;0.62;;;;;10.60;1.00;;;;;;2239999;62;1340;-85
2022/01/23 11:02:50;542894.00;1.81;935.71;0.00;0.00;0.62;;;;;10.80;1.00;;;;;;2235659;62;1158;-85
2022/01/23 11:05:19;466333.00;1.55;803.88;0.00;0.00;0.62;;;;;10.70;1.00;;;;;;2235898;62;2017;-85
2022/01/23 11:07:48;697079.00;2.32;1202.17;0.00;0.00;0.62;;;;;10.70;1.00;;;;;;2235349;62;1193;-85
2022/01/23 11:10:17;623076.00;2.08;1074.08;0.00;0.00;0.62;;;;;10.60;1.00;;;;;;2235433;62;1411;-84
2022/01/23 11:18:35;662261.00;2.21;1141.85;0.00;0.00;0.62;;;;;9.40;1.00;;;;;;2252959;61;1270;-85
2022/01/23 11:21:15;683577.00;2.28;1178.77;0.00;0.00;0.62;;;;;9.10;1.00;;;;;;2250971;61;1142;-84
2022/01/23 11:23:45;641097.00;2.14;1105.24;0.00;0.00;0.62;;;;;9.30;1.00;;;;;;2255634;61;2006;-85
2022/01/23 11:26:15;716742.00;2.39;1236.28;0.00;0.00;0.62;;;;;9.60;1.00;;;;;;2259257;61;1165;-85
2022/01/23 11:28:45;706244.00;2.35;1218.07;41579.00;0.14;72.62;;;;;9.60;1.00;;;;;;2259777;61;1462;-85
2022/01/23 11:31:19;723852.00;2.41;1248.63;51407.00;0.17;89.62;;;;;9.30;1.00;;;;;;2260861;61;1179;-85
2022/01/23 11:33:56;344145.00;1.15;593.80;0.00;0.00;0.62;;;;;9.70;1.00;;;;;;2260204;61;1149;-84
2022/01/23 11:36:24;672957.00;2.24;1160.37;0.00;0.00;0.62;;;;;10.00;1.00;;;;;;2253144;61;1038;-83
2022/01/23 11:38:56;119352528.00;397.84;68872016.00;0.00;0.00;0.62;;;;;9.80;1.00;;;;;;2251612;61;1382;-85
2022/01/23 11:55:46;144923488.00;483.08;123371160.00;0.00;0.00;0.62;;;;;10.50;1.00;;;;;;2256008;61;956;-83
2022/01/23 11:58:44;693115.00;2.31;1195.30;66899.00;0.22;116.40;;;;;10.50;1.00;;;;;;2252226;61;1404;-85
2022/01/23 12:01:19;931419.00;3.10;1611.37;73907.00;0.25;128.51;;;;;10.60;1.00;;;;;;2263221;61;1160;-84
2022/01/23 12:04:18;1040677.00;3.47;1804.65;54397.00;0.18;94.79;;;;;10.20;1.00;;;;;;2263292;61;2003;-84
2022/01/23 12:07:24;918898.00;3.06;1589.34;0.00;0.00;0.62;;;;;9.80;1.00;;;;;;2253009;61;1186;-84
2022/01/23 12:10:26;775094.00;2.58;1337.72;0.00;0.00;0.62;;;;;9.90;1.00;;;;;;2253219;61;1377;-84
2022/01/23 12:13:56;812574.00;2.71;1403.06;22640.00;0.08;39.84;;;;;10.20;1.00;;;;;;2256395;61;1216;-85
2022/01/23 12:16:51;687135.00;2.29;1184.94;0.00;0.00;0.62;;;;;10.00;1.00;;;;;;2256634;61;1090;-84
2022/01/23 12:19:23;831849.00;2.77;1436.73;0.00;0.00;0.62;;;;;10.50;1.00;;;;;;2255731;61;1322;-84
2022/01/23 12:22:15;792627.00;2.64;1368.27;0.00;0.00;0.62;;;;;9.90;1.00;;;;;;2262635;61;1199;-83
2022/01/23 12:24:49;785859.00;2.62;1356.47;0.00;0.00;0.62;;;;;9.70;1.00;;;;;;2264151;61;1995;-84
2022/01/23 12:27:23;1027161.00;3.42;1780.64;61925.00;0.21;107.80;;;;;9.80;1.00;;;;;;2257411;61;1276;-84
2022/01/23 12:29:52;873986.00;2.91;1510.48;69434.00;0.23;120.78;;;;;10.20;1.00;;;;;;2256411;61;1436;-84
2022/01/23 12:32:26;119944896.00;399.82;69903520.00;164274.00;0.55;284.40;;;;;10.50;1.00;;;;;;2263132;61;1160;-84
2022/01/23 12:35:04;910417.00;3.03;1574.42;63579.00;0.21;110.66;;;;;10.30;1.00;;;;;;2269048;61;1208;-84
2022/01/23 12:38:05;128448432.00;428.16;85866680.00;0.00;0.00;0.62;;;;;10.10;1.00;;;;;;2267846;61;1263;-84
2022/01/23 12:40:34;923457.00;3.08;1597.36;79517.00;0.27;138.20;;;;;9.80;1.00;;;;;;2261253;61;1311;-83
2022/01/23 12:43:14;1153912.00;3.85;2007.11;104662.00;0.35;181.62;;;;;9.60;1.00;;;;;;2264875;61;1152;-84
2022/01/23 12:46:05;954169.00;3.18;1651.46;49256.00;0.16;85.90;;;;;9.80;1.00;;;;;;2261070;61;2017;-85
2022/01/23 12:48:48;852582.00;2.84;1472.99;43418.00;0.14;75.80;;;;;9.30;1.00;;;;;;2256242;61;1374;-83
2022/01/23 12:51:41;786150.00;2.62;1356.98;0.00;0.00;0.62;;;;;9.40;1.00;;;;;;2256856;61;1178;-83
2022/01/23 12:54:12;1075779.00;3.59;1867.16;25179.00;0.08;44.24;;;;;9.70;1.00;;;;;;2257043;61;1148;-84
2022/01/23 12:56:44;706674.00;2.36;1218.81;0.00;0.00;0.62;;;;;9.80;1.00;;;;;;2257036;61;1240;-84
2022/01/23 12:59:22;840437.00;2.80;1451.74;0.00;0.00;0.62;;;;;10.20;1.00;;;;;;2263308;61;1415;-83
2022/01/23 13:01:58;779282.00;2.60;1345.02;0.00;0.00;0.62;;;;;10.50;1.00;;;;;;2263544;61;1132;-84
2022/01/23 13:04:38;734098.00;2.45;1266.42;0.00;0.00;0.62;;;;;10.00;1.00;;;;;;2263543;61;1998;-85
2022/01/23 13:07:19;734430.00;2.45;1267.00;0.00;0.00;0.62;;;;;9.50;1.00;;;;;;2256993;61;1164;-86
2022/01/23 13:09:54;480972.00;1.60;829.07;0.00;0.00;0.62;;;;;9.00;1.00;;;;;;2255504;61;1310;-85
2022/01/23 13:15:20;859085.00;2.86;1484.37;19217.00;0.06;33.91;;;;;8.60;1.00;;;;;;2255626;61;1089;-85
2022/01/23 13:18:00;727390.00;2.42;1254.77;0.00;0.00;0.62;;;;;8.80;1.00;;;;;;2255580;61;1232;-85
2022/01/23 13:31:42;589462.00;1.96;1016.03;0.00;0.00;0.62;;;;;8.90;1.00;;;;;;2255541;61;1038;-84
2022/01/23 13:34:27;591473.00;1.97;1019.50;0.00;0.00;0.62;;;;;8.40;1.00;;;;;;2254638;61;1200;-84
2022/01/23 13:37:00;1170351.00;3.90;2036.71;3655.00;0.01;6.95;;;;;8.10;1.00;;;;;;2244396;61;1313;-85
2022/01/23 13:39:31;870919.00;2.90;1505.10;31842.00;0.11;55.77;;;;;7.80;1.00;;;;;;2255022;61;1369;-84
2022/01/23 13:42:08;640473.00;2.13;1104.16;0.00;0.00;0.62;;;;;7.80;1.00;;;;;;2251295;61;1156;-85
2022/01/23 13:53:07;554461.00;1.85;955.65;0.00;0.00;0.62;;;;;8.00;1.00;;;;;;2255073;61;930;-84
2022/01/23 13:58:36;461868.00;1.54;796.20;0.00;0.00;0.62;;;;;7.80;1.00;;;;;;2255009;61;1227;-85
2022/01/23 14:01:18;687609.00;2.29;1185.76;0.00;0.00;0.62;;;;;8.00;1.00;;;;;;2248277;61;1090;-85
2022/01/23 14:03:46;653126.00;2.18;1126.04;36509.00;0.12;63.85;;;;;8.30;1.00;;;;;;2254399;61;1118;-84
2022/01/23 14:06:13;1210999.00;4.04;2110.12;0.00;0.00;0.62;;;;;8.10;1.00;;;;;;2246183;61;2019;-84
2022/01/23 14:08:40;914205.00;3.05;1581.08;0.00;0.00;0.62;;;;;7.80;1.00;;;;;;2249982;61;1314;-84
2022/01/23 14:11:09;700220.00;2.33;1207.62;0.00;0.00;0.62;;;;;7.70;1.00;;;;;;2258389;61;1203;-84
2022/01/23 14:13:37;1195926.00;3.99;2082.86;55208.00;0.18;96.19;;;;;7.40;1.00;;;;;;2260715;61;1205;-86
2022/01/23 14:16:06;931135.00;3.10;1610.87;45306.00;0.15;79.07;;;;;7.40;1.00;;;;;;2250674;61;1176;-85
2022/01/23 14:18:33;816509.00;2.72;1409.93;90819.00;0.30;157.72;;;;;7.70;1.00;;;;;;2247839;61;1336;-85
2022/01/23 14:21:04;1047997.00;3.49;1817.67;63804.00;0.21;111.05;;;;;8.20;1.00;;;;;;2250673;61;1211;-85
2022/01/23 14:23:33;866542.00;2.89;1497.43;86881.00;0.29;150.92;;;;;8.30;1.00;;;;;;2250551;61;1081;-85
2022/01/23 14:26:07;839100.00;2.80;1449.40;47957.00;0.16;83.65;;;;;8.00;1.00;;;;;;2250332;61;2010;-85
2022/01/23 14:28:44;863585.00;2.88;1492.25;74712.00;0.25;129.90;;;;;7.90;1.00;;;;;;2252289;61;1377;-85
2022/01/23 14:31:17;941537.00;3.14;1629.19;73482.00;0.24;127.78;;;;;8.40;1.00;;;;;;2252857;61;1228;-85
2022/01/23 14:33:47;1024944.00;3.42;1776.70;66376.00;0.22;115.50;;;;;8.80;1.00;;;;;;2244524;61;1146;-83
2022/01/23 14:36:17;721051.00;2.40;1243.76;65750.00;0.22;114.42;;;;;8.90;1.00;;;;;;2248448;61;1180;-84
2022/01/23 14:39:01;909813.00;3.03;1573.36;80612.00;0.27;140.09;;;;;8.80;1.00;;;;;;2245092;62;1420;-85
2022/01/23 14:41:33;1178377.00;3.93;2051.17;66033.00;0.22;114.90;;;;;9.00;1.00;;;;;;2236754;62;1162;-85
2022/01/23 14:44:05;1076807.00;3.59;1869.00;47267.00;0.16;82.46;;;;;9.20;1.00;;;;;;2232360;62;1094;-84
2022/01/23 14:46:35;772137.00;2.57;1332.57;73736.00;0.25;128.22;;;;;8.90;1.00;;;;;;2237484;62;1935;-84
2022/01/23 14:49:10;959882.00;3.20;1661.54;82195.00;0.27;142.83;;;;;9.30;1.00;;;;;;2236771;62;1365;-84
2022/01/23 14:51:40;1061864.00;3.54;1842.36;37263.00;0.12;65.15;;;;;9.60;1.00;;;;;;2235585;62;1263;-84
2022/01/23 14:54:07;1242044.00;4.14;2166.42;47698.00;0.16;83.20;;;;;9.50;1.00;;;;;;2242915;61;1155;-87
2022/01/23 14:57:02;915662.00;3.05;1583.64;66569.00;0.22;115.83;;;;;9.40;1.00;;;;;;2243840;61;1130;-85
2022/01/23 14:59:52;594783.00;1.98;1025.21;0.00;0.00;0.62;;;;;9.30;1.00;;;;;;2246145;61;1408;-86
2022/01/23 15:02:44;;;;;;;;;;;;;;;;;;;;;
2022/01/23 15:05:29;;;;;;;;;;;;;;;;;;;;;
2022/01/23 15:08:11;;;;;;;;;;;;;;;;;;;;;
2022/01/23 15:10:39;1047616.00;3.49;1816.99;17174.00;0.06;30.38;;;;;8.20;1.00;;;;;;2242637;61;1171;-85
2022/01/23 15:13:25;768260.00;2.56;1325.82;8697.00;0.03;15.69;;;;;7.80;1.00;;;;;;2252980;61;1197;-85
2022/01/23 15:16:16;;;;;;;;;;;;;;;;;;;;;
2022/01/23 15:18:45;1321990.00;4.41;2312.41;107833.00;0.36;187.09;;;;;8.50;1.00;;;;;;2225716;62;1339;-85
2022/01/23 15:21:15;1069069.00;3.56;1855.20;64117.00;0.21;111.59;;;;;8.90;1.00;;;;;;2231839;62;1749;-87
2022/01/23 15:23:42;1668321.00;5.56;2964.04;94261.00;0.31;163.66;;;;;8.50;1.00;;;;;;2222560;62;1065;-84
2022/01/23 15:26:09;952142.00;3.17;1647.89;62079.00;0.21;108.07;;;;;8.90;1.00;;;;;;2224576;62;2008;-83
2022/01/23 15:28:41;1032913.00;3.44;1790.85;24245.00;0.08;42.62;;;;;9.40;1.00;;;;;;2228081;62;1247;-84
2022/01/23 15:31:10;1078378.00;3.59;1871.80;58477.00;0.19;101.84;;;;;9.70;1.00;;;;;;2232294;62;1061;-83
2022/01/23 15:33:39;1050899.00;3.50;1822.83;62513.00;0.21;108.82;;;;;9.50;1.00;;;;;;2222924;62;1179;-83
2022/01/23 15:36:06;1083210.00;3.61;1880.42;62720.00;0.21;109.18;;;;;9.00;1.00;;;;;;2228080;62;1135;-85
2022/01/23 15:38:36;1136715.00;3.79;1976.21;66983.00;0.22;116.55;;;;;8.90;1.00;;;;;;2233314;62;1299;-84
2022/01/23 15:41:06;1202656.00;4.01;2095.02;63843.00;0.21;111.12;;;;;8.90;1.00;;;;;;2240443;61;1182;-85
2022/01/23 15:43:33;914380.00;3.05;1581.39;177813.00;0.59;307.72;;;;;8.60;1.00;;;;;;2247616;61;1153;-83
2022/01/23 15:46:00;1150557.00;3.84;2001.08;97823.00;0.33;169.81;;;;;8.80;1.00;;;;;;2247064;61;1927;-85
2022/01/23 15:48:30;1154989.00;3.85;2009.05;73079.00;0.24;127.08;;;;;8.70;1.00;;;;;;2246704;61;1397;-84
2022/01/23 15:50:57;862547.00;2.88;1490.43;0.00;0.00;0.62;;;;;9.10;1.00;;;;;;2249414;61;1175;-85
2022/01/23 15:53:26;832277.00;2.77;1437.47;44799.00;0.15;78.19;;;;;9.40;1.00;;;;;;2267157;61;1201;-85
2022/01/23 15:55:53;809332.00;2.70;1397.40;53178.00;0.18;92.68;;;;;9.50;1.00;;;;;;2268394;61;1232;-85
2022/01/23 15:58:20;780460.00;2.60;1347.07;0.00;0.00;0.62;;;;;9.40;1.00;;;;;;2268833;61;1343;-84
2022/01/23 17:08:43;453917.00;1.51;782.52;0.00;0.00;0.62;;;;;8.30;1.00;;;;;;2274515;61;347;-89
2022/01/23 17:11:27;498155.00;1.66;858.65;0.00;0.00;0.62;;;;;8.00;1.00;;;;;;2268077;61;921;-89
2022/01/23 17:31:19;1139392.00;3.80;1981.02;0.00;0.00;0.62;;;;;8.60;1.00;;;;;;2276133;61;1186;-85
2022/01/23 17:33:46;515908.00;1.72;889.22;0.00;0.00;0.62;;;;;8.90;1.00;;;;;;2273383;61;1104;-85
2022/01/23 17:36:26;733041.00;2.44;1264.58;50560.00;0.17;88.15;;;;;9.10;1.00;;;;;;2266574;61;1263;-85
2022/01/23 17:38:53;866848.00;2.89;1497.97;107905.00;0.36;187.21;;;;;9.10;1.00;;;;;;2274464;61;1367;-84
2022/01/23 17:41:20;1250605.00;4.17;2181.99;55058.00;0.18;95.93;;;;;9.30;1.00;;;;;;2264022;61;1265;-85
2022/01/23 17:43:48;906323.00;3.02;1567.23;64269.00;0.21;111.86;;;;;9.40;1.00;;;;;;2274901;61;1103;-85
2022/01/23 17:46:33;630945.00;2.10;1087.68;59123.00;0.20;102.96;;;;;9.50;1.00;;;;;;2265362;61;2006;-85
2022/01/23 17:49:05;923695.00;3.08;1597.77;50545.00;0.17;88.13;;;;;9.40;1.00;;;;;;2265558;61;1396;-85
2022/01/23 17:51:34;715954.00;2.39;1234.92;71272.00;0.24;123.96;;;;;9.40;1.00;;;;;;2258268;61;1156;-84
2022/01/23 17:54:03;788443.00;2.63;1360.98;60670.00;0.20;105.64;;;;;9.40;1.00;;;;;;2264983;61;1168;-84
2022/01/23 17:56:31;761112.00;2.54;1313.38;65968.00;0.22;114.79;;;;;9.40;1.00;;;;;;2264913;61;1227;-84
2022/01/23 17:58:59;714050.00;2.38;1231.61;62650.00;0.21;109.06;;;;;9.40;1.00;;;;;;2256810;61;1406;-85
2022/01/23 18:01:27;779576.00;2.60;1345.53;71632.00;0.24;124.58;;;;;9.20;1.00;;;;;;2254074;61;1120;-84
2022/01/23 18:03:55;599243.00;2.00;1032.91;52753.00;0.18;91.95;;;;;9.20;1.00;;;;;;2256269;61;1223;-85
2022/01/23 18:06:30;816554.00;2.72;1410.01;104634.00;0.35;181.57;;;;;9.30;1.00;;;;;;2258462;61;2017;-85